Time;durP1;ratioP1;P1;durP2;ratioP2;P2;SDS_P1;SDS_P2;PMS_P1;PMS_P2;Temp;Humidity;BMP_temperature;BMP_pressure;BME280_temperature;BME280_humidity;BME280_pressure;Samples;Min_cycle;Max_cycle;Signal;HPM_P1;HPM_P2
2023/01/22 00:01:11;;;;;;;16.90;10.00;;;;;;;7.42;95.42;94647.25;5050605;28;20411;-75
2023/01/22 00:03:36;;;;;;;17.90;10.73;;;;;;;7.37;95.37;94648.81;5049868;28;20415;-75
2023/01/22 00:06:02;;;;;;;15.80;8.50;;;;;;;7.27;95.70;94656.22;5068103;28;20663;-75
2023/01/22 00:08:27;;;;;;;16.60;11.10;;;;;;;7.10;96.52;94647.91;5069551;28;20421;-75
2023/01/22 00:10:54;;;;;;;15.67;8.40;;;;;;;7.30;96.56;94650.59;5071191;28;20179;-75
2023/01/22 00:13:21;;;;;;;14.20;8.17;;;;;;;7.50;96.16;94654.94;5071370;28;20523;-75
2023/01/22 00:15:47;;;;;;;18.07;10.27;;;;;;;7.58;95.85;94657.38;5070924;28;20444;-75
2023/01/22 00:18:13;;;;;;;15.93;8.80;;;;;;;7.59;96.32;94642.47;5069935;28;20931;-75
2023/01/22 00:20:39;;;;;;;15.70;8.48;;;;;;;7.69;95.89;94648.13;5071103;28;20393;-75
2023/01/22 00:23:04;;;;;;;17.10;9.40;;;;;;;7.45;96.03;94659.13;5054848;28;20419;-75
2023/01/22 00:25:30;;;;;;;14.95;8.50;;;;;;;7.32;97.77;94640.75;5047428;28;20407;-75
2023/01/22 00:27:55;;;;;;;19.53;9.10;;;;;;;7.47;97.85;94631.75;5049451;28;20696;-75
2023/01/22 00:30:21;;;;;;;15.60;8.07;;;;;;;7.61;97.52;94639.66;5051045;28;20233;-75
2023/01/22 00:32:46;;;;;;;16.37;10.27;;;;;;;7.42;97.60;94644.63;5056519;28;20421;-75
2023/01/22 00:35:12;;;;;;;20.83;12.63;;;;;;;7.47;98.35;94657.94;5069654;28;20550;-75
2023/01/22 00:37:38;;;;;;;19.20;11.18;;;;;;;7.10;99.00;94653.94;5069711;28;20804;-75
2023/01/22 00:40:04;;;;;;;18.48;11.38;;;;;;;7.17;100.00;94654.81;5070211;28;20409;-75
2023/01/22 00:42:30;;;;;;;17.57;9.33;;;;;;;7.30;100.00;94648.81;5069566;28;20202;-75
2023/01/22 00:44:56;;;;;;;13.93;9.00;;;;;;;7.45;100.00;94656.50;5070134;28;20452;-75
2023/01/22 00:47:21;;;;;;;10.90;7.43;;;;;;;7.38;99.55;94659.09;5070843;28;20166;-75
2023/01/22 00:49:47;;;;;;;12.73;8.33;;;;;;;7.38;99.87;94666.16;5069622;28;20715;-75
2023/01/22 00:52:12;;;;;;;14.02;9.05;;;;;;;7.43;100.00;94666.38;5070204;28;20415;-75
2023/01/22 00:54:38;;;;;;;14.87;9.83;;;;;;;7.48;100.00;94656.94;5069331;28;20413;-75
2023/01/22 00:57:03;;;;;;;14.13;8.30;;;;;;;7.69;99.03;94655.19;5069629;28;20667;-75
2023/01/22 00:59:29;;;;;;;15.85;9.70;;;;;;;7.70;98.92;94675.91;5055308;28;20422;-75
2023/01/22 01:01:54;;;;;;;14.43;8.87;;;;;;;7.77;98.88;94668.91;5050490;28;21250;-75
2023/01/22 01:04:19;;;;;;;11.23;7.70;;;;;;;7.82;98.58;94653.38;5069565;28;20252;-75
2023/01/22 01:06:45;;;;;;;16.65;9.77;;;;;;;7.79;98.01;94673.94;5067825;28;20834;-75
2023/01/22 01:09:10;;;;;;;14.47;9.37;;;;;;;7.66;99.35;94682.56;5069072;28;20425;-75
2023/01/22 01:11:36;;;;;;;13.10;8.63;;;;;;;7.77;99.44;94682.00;5070507;28;20253;-75
2023/01/22 01:14:02;;;;;;;14.60;8.43;;;;;;;7.85;99.02;94684.44;5070474;28;20653;-75
2023/01/22 01:16:30;;;;;;;15.53;8.80;;;;;;;8.01;98.51;94700.81;5070500;28;20178;-75
2023/01/22 01:19:04;;;;;;;16.52;9.50;;;;;;;8.14;97.46;94692.94;5069739;28;20405;-75
2023/01/22 01:21:30;;;;;;;17.30;8.93;;;;;;;8.16;97.72;94693.56;5070261;28;20186;-75
2023/01/22 01:23:57;;;;;;;12.70;7.90;;;;;;;8.12;97.64;94702.84;5070531;28;20171;-75
2023/01/22 01:26:23;;;;;;;16.50;11.23;;;;;;;8.04;97.84;94700.41;5068692;28;20908;-75
2023/01/22 01:28:51;;;;;;;15.60;9.77;;;;;;;8.09;97.45;94708.47;5070434;28;20205;-75
2023/01/22 01:31:18;;;;;;;19.43;11.53;;;;;;;8.11;97.39;94719.59;5070429;28;20552;-75
2023/01/22 01:33:44;;;;;;;20.90;12.25;;;;;;;8.13;97.55;94728.06;5070455;28;20410;-75
2023/01/22 01:36:18;;;;;;;22.00;13.87;;;;;;;8.09;97.63;94727.63;5069361;28;20417;-75
2023/01/22 01:38:43;;;;;;;21.38;13.05;;;;;;;8.11;98.02;94728.25;5069645;28;20445;-75
2023/01/22 01:41:15;;;;;;;23.47;14.60;;;;;;;8.15;98.07;94736.50;5069289;28;20413;-75
2023/01/22 01:43:41;;;;;;;27.83;15.35;;;;;;;8.12;98.47;94727.25;5070779;28;20492;-75
2023/01/22 01:46:17;;;;;;;21.40;13.40;;;;;;;8.22;97.97;94735.50;5074077;28;20320;-75
2023/01/22 01:48:46;;;;;;;22.60;12.77;;;;;;;8.24;97.53;94730.06;5046624;28;20633;-75
2023/01/22 01:51:24;;;;;;;25.23;13.90;;;;;;;8.24;97.73;94723.03;5069262;28;20624;-75
2023/01/22 01:53:50;;;;;;;25.13;13.07;;;;;;;8.24;97.73;94724.84;5073896;28;20181;-75
2023/01/22 01:56:22;;;;;;;22.27;12.43;;;;;;;8.24;97.29;94730.88;5073816;28;20672;-75
2023/01/22 01:58:52;;;;;;;22.10;13.23;;;;;;;8.27;97.29;94737.56;5073753;28;20791;-75
2023/01/22 02:01:18;;;;;;;23.03;12.83;;;;;;;8.24;97.64;94725.63;5074010;28;20182;-75
2023/01/22 02:03:45;;;;;;;25.43;13.47;;;;;;;8.22;97.82;94724.22;5073745;28;20227;-75
2023/01/22 02:06:12;;;;;;;27.43;15.33;;;;;;;8.19;97.85;94714.97;5067273;28;20415;-75
2023/01/22 02:08:39;;;;;;;24.27;13.70;;;;;;;8.19;97.74;94711.53;5062562;28;20448;-74
2023/01/22 02:11:05;;;;;;;25.23;14.23;;;;;;;8.17;97.90;94724.03;5053602;28;20209;-75
2023/01/22 02:13:34;;;;;;;23.90;13.90;;;;;;;8.19;97.21;94714.16;5053446;28;20182;-75
2023/01/22 02:16:00;;;;;;;29.10;14.37;;;;;;;8.12;97.19;94715.97;5053418;28;20178;-75
2023/01/22 02:18:26;;;;;;;32.63;17.70;;;;;;;8.01;96.96;94732.25;5053237;28;20403;-75
2023/01/22 02:20:59;;;;;;;29.00;17.85;;;;;;;7.83;98.15;94736.25;5052395;28;20415;-75
2023/01/22 02:23:26;;;;;;;26.70;17.38;;;;;;;7.51;99.30;94731.69;5051712;28;20445;-75
2023/01/22 02:25:52;;;;;;;28.30;18.33;;;;;;;7.48;100.00;94727.63;5051956;28;20407;-75
2023/01/22 02:28:18;;;;;;;24.33;14.43;;;;;;;7.63;100.00;94719.63;5052819;28;20272;-75
2023/01/22 02:30:44;;;;;;;26.70;13.20;;;;;;;7.78;100.00;94728.16;5066280;28;20243;-75
2023/01/22 02:33:10;;;;;;;23.20;14.65;;;;;;;7.77;100.00;94729.16;5071869;28;20401;-75
2023/01/22 02:35:35;;;;;;;23.25;14.98;;;;;;;7.74;100.00;94716.44;5071511;28;20930;-75
2023/01/22 02:38:01;;;;;;;17.67;12.00;;;;;;;7.81;100.00;94716.47;5052701;28;20268;-75
2023/01/22 02:40:28;;;;;;;19.13;12.05;;;;;;;7.97;100.00;94698.56;5052394;28;20419;-75
2023/01/22 02:42:54;;;;;;;17.60;11.33;;;;;;;7.97;99.13;94709.06;5052812;28;20560;-75
2023/01/22 02:45:20;;;;;;;18.10;11.93;;;;;;;7.93;100.00;94715.72;5051392;28;20419;-75
2023/01/22 02:47:45;;;;;;;29.33;16.73;;;;;;;7.95;100.00;94718.94;5052585;28;20194;-75
2023/01/22 02:50:11;;;;;;;18.37;12.10;;;;;;;7.69;99.94;94720.69;5051341;28;20407;-74
2023/01/22 02:52:36;;;;;;;17.15;11.43;;;;;;;7.43;100.00;94727.41;5051438;28;20786;-75
2023/01/22 02:55:02;;;;;;;13.53;9.30;;;;;;;7.36;100.00;94729.19;5051116;28;20407;-75
2023/01/22 02:57:29;;;;;;;12.60;8.93;;;;;;;7.41;100.00;94731.22;5051157;28;20833;-75
2023/01/22 02:59:55;;;;;;;10.85;7.30;;;;;;;7.36;100.00;94733.59;5051422;28;20854;-75
2023/01/22 03:02:20;;;;;;;10.87;7.23;;;;;;;7.57;100.00;94728.28;5051491;28;20504;-75
2023/01/22 03:04:48;;;;;;;12.40;7.77;;;;;;;7.81;100.00;94724.31;5051433;28;20410;-75
2023/01/22 03:07:16;;;;;;;11.77;7.90;;;;;;;7.78;100.00;94728.16;5049682;28;20783;-75
2023/01/22 03:09:41;;;;;;;9.33;5.93;;;;;;;8.08;99.75;94714.72;5065489;28;20183;-75
2023/01/22 03:12:07;;;;;;;11.93;6.63;;;;;;;8.18;98.75;94723.81;5063246;28;20424;-75
2023/01/22 03:22:44;;;;;;;12.90;7.03;;;;;;;8.25;97.80;94729.06;5052213;28;20589;-75
2023/01/22 03:25:09;;;;;;;11.90;7.10;;;;;;;8.26;97.58;94722.81;5052128;28;20174;-75
2023/01/22 03:27:35;;;;;;;13.60;7.87;;;;;;;8.31;97.60;94736.16;5051672;28;20514;-74
2023/01/22 03:30:01;;;;;;;13.18;8.50;;;;;;;8.23;97.60;94724.03;5050643;28;20802;-75
2023/01/22 03:32:26;;;;;;;15.80;8.13;;;;;;;8.31;96.90;94738.78;5052232;28;20171;-75
2023/01/22 03:34:52;;;;;;;17.97;9.17;;;;;;;8.27;97.22;94734.94;5051094;28;20290;-75
2023/01/22 03:37:18;;;;;;;14.25;8.65;;;;;;;8.21;96.82;94736.53;5051681;28;20465;-75
2023/01/22 03:39:43;;;;;;;12.63;8.50;;;;;;;8.24;96.84;94735.31;5051806;28;20179;-75
2023/01/22 03:42:09;;;;;;;15.32;9.10;;;;;;;8.03;97.12;94736.31;5050354;28;20461;-75
2023/01/22 03:44:34;;;;;;;15.23;9.30;;;;;;;7.99;97.73;94729.81;5050790;28;20407;-75
2023/01/22 03:47:00;;;;;;;13.15;8.75;;;;;;;7.98;98.15;94738.69;5050451;28;20411;-75
2023/01/22 03:49:25;;;;;;;13.33;9.17;;;;;;;7.94;97.21;94755.84;5050100;28;21025;-75
2023/01/22 03:51:51;;;;;;;10.90;6.90;;;;;;;7.86;97.48;94745.53;5051563;28;20673;-75
2023/01/22 03:54:16;;;;;;;7.43;4.63;;;;;;;7.87;97.57;94742.69;5051511;28;20185;-75
2023/01/22 03:56:42;;;;;;;7.37;4.93;;;;;;;7.90;95.58;94742.31;5051279;28;20163;-75
2023/01/22 03:59:09;;;;;;;8.67;4.50;;;;;;;7.86;95.16;94751.56;5050603;28;21036;-75
2023/01/22 04:01:34;;;;;;;6.03;4.30;;;;;;;7.88;94.71;94754.78;5051606;28;20185;-75
2023/01/22 04:04:00;;;;;;;5.40;3.97;;;;;;;7.86;94.55;94751.56;5060262;28;20677;-75
2023/01/22 04:06:26;;;;;;;6.57;4.95;;;;;;;7.87;93.99;94753.16;5048346;28;20513;-75
2023/01/22 04:08:53;;;;;;;7.00;4.73;;;;;;;7.90;93.45;94751.97;5064240;28;20259;-75
2023/01/22 04:11:20;;;;;;;8.00;4.87;;;;;;;7.85;93.79;94755.19;5064504;28;20308;-75
2023/01/22 04:13:46;;;;;;;6.77;4.63;;;;;;;7.85;94.10;94757.81;5050205;28;20174;-76
2023/01/22 04:16:13;;;;;;;6.70;3.50;;;;;;;7.83;93.85;94767.69;5051552;28;20190;-76
2023/01/22 04:18:40;;;;;;;6.00;4.20;;;;;;;7.82;93.53;94762.63;5065542;28;20166;-76
2023/01/22 04:21:05;;;;;;;6.73;3.70;;;;;;;7.80;93.93;94768.06;5071378;28;20276;-76
2023/01/22 04:23:31;;;;;;;5.20;3.40;;;;;;;7.80;93.38;94768.06;5071575;28;20307;-76
2023/01/22 04:25:57;;;;;;;7.77;4.07;;;;;;;7.76;92.91;94766.03;5059466;28;20638;-76
2023/01/22 04:28:22;;;;;;;9.23;4.80;;;;;;;7.75;93.72;94774.91;5051226;28;20179;-76
2023/01/22 04:30:50;;;;;;;7.60;3.90;;;;;;;7.68;93.69;94760.97;5059087;28;20190;-76
2023/01/22 04:33:16;;;;;;;7.73;4.20;;;;;;;7.70;93.96;94775.47;5071337;28;20249;-76
2023/01/22 04:35:41;;;;;;;9.37;3.63;;;;;;;7.66;93.71;94781.31;5071268;28;20796;-76
2023/01/22 04:38:11;;;;;;;8.00;4.70;;;;;;;7.63;94.13;94789.53;5069391;28;20517;-75
2023/01/22 04:40:36;;;;;;;9.00;4.60;;;;;;;7.55;94.43;94782.66;5069763;28;20886;-76
2023/01/22 04:43:04;;;;;;;10.57;6.33;;;;;;;7.53;94.63;94782.84;5070964;28;20257;-76
2023/01/22 04:45:29;;;;;;;10.63;6.90;;;;;;;7.53;93.64;94801.19;5055403;28;20175;-76
2023/01/22 04:47:55;;;;;;;11.47;7.03;;;;;;;7.46;93.65;94791.66;5050691;28;20194;-76
2023/01/22 04:50:29;;;;;;;12.67;8.17;;;;;;;7.45;93.76;94795.28;5052928;28;20670;-76
2023/01/22 04:52:55;;;;;;;14.00;9.02;;;;;;;7.38;93.72;94797.88;5059214;28;20409;-76
2023/01/22 04:55:21;;;;;;;9.03;6.07;;;;;;;7.41;94.03;94817.63;5056199;28;20179;-76
2023/01/22 04:57:47;;;;;;;13.27;8.37;;;;;;;7.33;93.88;94813.38;5058755;28;20248;-76
2023/01/22 05:00:13;;;;;;;9.33;6.90;;;;;;;7.31;94.30;94825.03;5068540;28;20265;-76
2023/01/22 05:02:39;;;;;;;12.80;7.07;;;;;;;7.27;94.40;94826.38;5062429;28;20175;-76
2023/01/22 05:05:06;;;;;;;13.70;8.23;;;;;;;7.24;94.70;94824.16;5053175;28;21053;-76
2023/01/22 05:07:32;;;;;;;10.90;6.47;;;;;;;7.25;95.11;94831.84;5050719;28;20175;-76
2023/01/22 05:09:57;;;;;;;25.50;9.87;;;;;;;7.23;95.26;94835.63;5061461;28;20190;-76
2023/01/22 05:12:23;;;;;;;17.50;10.27;;;;;;;7.22;94.99;94837.44;5066918;28;20704;-76
2023/01/22 05:14:48;;;;;;;22.00;9.40;;;;;;;7.26;95.90;94849.16;5057713;28;20187;-76
2023/01/22 05:17:14;;;;;;;18.60;10.67;;;;;;;7.28;96.19;94854.19;5067019;28;20406;-75
2023/01/22 05:19:39;;;;;;;20.00;10.30;;;;;;;7.32;96.35;94858.06;5069516;28;20547;-76
2023/01/22 05:22:05;;;;;;;29.43;14.40;;;;;;;7.30;96.65;94852.19;5074661;28;20178;-75
2023/01/22 05:24:30;;;;;;;35.67;18.50;;;;;;;7.28;96.44;94854.19;5060553;28;20410;-75
2023/01/22 05:26:56;;;;;;;33.20;15.67;;;;;;;7.31;96.47;94861.69;5054720;28;20232;-76
2023/01/22 05:29:24;;;;;;;29.10;16.50;;;;;;;7.31;96.03;94862.50;5072525;28;20303;-76
2023/01/22 05:31:51;;;;;;;24.70;13.27;;;;;;;7.25;96.37;94857.22;5065339;28;20482;-76
2023/01/22 05:34:16;;;;;;;27.67;16.43;;;;;;;7.07;96.92;94874.19;5052491;28;20790;-76
2023/01/22 05:36:42;;;;;;;24.70;13.77;;;;;;;7.08;98.09;94881.03;5055903;28;20175;-76
2023/01/22 05:39:07;;;;;;;29.53;14.13;;;;;;;7.18;97.66;94886.75;5067684;28;20236;-76
2023/01/22 05:41:33;;;;;;;25.93;16.23;;;;;;;7.13;97.69;94904.03;5060246;28;20466;-76
2023/01/22 05:44:01;;;;;;;26.87;15.03;;;;;;;7.10;98.03;94918.28;5065836;28;20619;-76
2023/01/22 05:46:26;;;;;;;26.47;13.70;;;;;;;7.17;98.08;94913.94;5057720;28;20182;-76
2023/01/22 05:48:51;;;;;;;22.33;12.73;;;;;;;7.18;98.13;94912.09;5060999;28;20194;-76
2023/01/22 05:51:17;;;;;;;26.87;14.60;;;;;;;7.19;97.38;94919.78;5074266;28;20584;-76
2023/01/22 05:53:42;;;;;;;32.23;16.37;;;;;;;7.18;97.42;94912.91;5071074;28;20449;-76
2023/01/22 05:56:09;;;;;;;30.77;17.17;;;;;;;7.22;98.05;94923.03;5072063;28;20972;-76
2023/01/22 05:58:34;;;;;;;29.00;14.97;;;;;;;7.20;97.93;94917.97;5063080;28;20179;-76
2023/01/22 06:00:59;;;;;;;27.13;14.13;;;;;;;7.33;97.81;94927.75;5053222;28;20186;-76
2023/01/22 06:03:25;;;;;;;21.30;11.37;;;;;;;7.34;97.39;94924.97;5054500;28;20466;-76
2023/01/22 06:06:01;;;;;;;24.13;12.37;;;;;;;7.37;97.26;94924.56;5053546;28;20579;-76
2023/01/22 06:08:28;;;;;;;26.43;11.83;;;;;;;7.42;97.02;94939.72;5053810;28;20191;-75
2023/01/22 06:11:06;;;;;;;22.40;11.13;;;;;;;7.50;97.02;94939.59;5064652;28;20195;-74
2023/01/22 06:13:33;;;;;;;20.47;11.03;;;;;;;7.48;96.32;94941.56;5073356;28;20177;-74
2023/01/22 06:15:59;;;;;;;43.30;16.60;;;;;;;7.52;96.26;94945.44;5073135;28;20193;-75
2023/01/22 06:18:25;;;;;;;45.30;17.07;;;;;;;7.57;96.11;94956.16;5073360;28;20174;-74
2023/01/22 06:20:51;;;;;;;30.20;15.73;;;;;;;7.60;95.36;94950.53;5073137;28;20178;-73
2023/01/22 06:23:17;;;;;;;32.97;15.70;;;;;;;7.65;96.00;94963.88;5055646;28;20186;-74
2023/01/22 06:25:42;;;;;;;28.97;15.73;;;;;;;7.68;95.71;94953.03;5066221;28;20182;-74
2023/01/22 06:28:08;;;;;;;27.47;15.17;;;;;;;7.76;95.49;94960.75;5072984;28;20674;-74
2023/01/22 06:30:34;;;;;;;33.80;15.60;;;;;;;7.73;95.05;94971.59;5071850;28;20182;-74
2023/01/22 06:33:00;;;;;;;25.70;14.00;;;;;;;7.74;95.09;94970.59;5061968;28;20182;-74
2023/01/22 06:35:25;;;;;;;31.07;16.83;;;;;;;7.74;95.07;94962.72;5052986;28;20175;-74
2023/01/22 06:37:51;;;;;;;34.60;19.40;;;;;;;7.72;94.61;94969.16;5052670;28;20218;-74
2023/01/22 06:40:16;;;;;;;36.73;19.53;;;;;;;7.77;94.74;94972.03;5052626;28;20235;-74
2023/01/22 06:42:42;;;;;;;36.07;18.97;;;;;;;7.76;94.86;94979.09;5066935;28;20173;-74
2023/01/22 06:45:08;;;;;;;41.20;20.43;;;;;;;7.79;95.29;94978.69;5072526;28;20170;-74
2023/01/22 06:47:33;;;;;;;37.67;20.77;;;;;;;7.90;95.25;94982.59;5066023;28;20638;-74
2023/01/22 06:49:59;;;;;;;39.37;22.80;;;;;;;8.50;96.20;94984.59;5063384;28;20536;-74
2023/01/22 06:52:24;;;;;;;35.83;19.73;;;;;;;9.40;92.84;94996.63;5055456;28;20179;-74
2023/01/22 06:54:49;;;;;;;38.03;20.27;;;;;;;10.15;88.66;94998.03;5042893;28;20190;-74
2023/01/22 06:57:15;;;;;;;40.07;22.17;;;;;;;10.94;84.52;95003.13;5043320;28;20264;-74
2023/01/22 06:59:41;;;;;;;35.50;19.87;;;;;;;11.39;81.15;95014.44;5047011;28;20174;-74
2023/01/22 07:02:06;;;;;;;33.93;20.80;;;;;;;11.49;79.85;95020.06;5052667;28;20190;-75
2023/01/22 07:04:31;;;;;;;32.87;19.10;;;;;;;11.59;79.40;95023.03;5052693;28;20725;-74
2023/01/22 07:06:57;;;;;;;29.43;17.40;;;;;;;11.82;79.41;95019.06;5061440;28;20959;-75
2023/01/22 07:09:22;;;;;;;18.77;12.10;;;;;;;12.26;78.56;95021.56;5052105;28;20273;-75
2023/01/22 07:11:48;;;;;;;27.97;15.63;;;;;;;13.01;76.20;95024.81;5052420;28;20190;-75
2023/01/22 07:14:13;;;;;;;24.17;15.50;;;;;;;13.40;73.85;95013.00;5058603;28;20663;-74
2023/01/22 07:16:39;;;;;;;30.60;16.60;;;;;;;14.03;71.91;95023.03;5058884;28;20190;-74
2023/01/22 07:19:05;;;;;;;30.83;18.73;;;;;;;14.47;70.24;95023.56;5051849;28;20644;-74
2023/01/22 07:21:30;;;;;;;29.13;17.37;;;;;;;14.40;68.29;95025.53;5059974;28;20249;-73
2023/01/22 07:23:55;;;;;;;25.67;17.40;;;;;;;14.27;68.86;95029.97;5057667;28;20268;-74
2023/01/22 07:26:21;;;;;;;45.20;29.20;;;;;;;14.08;68.94;95030.31;5056342;28;20653;-74
2023/01/22 07:28:46;;;;;;;41.30;27.00;;;;;;;13.74;69.85;95024.72;5051381;28;20278;-75
2023/01/22 07:31:12;;;;;;;34.97;22.40;;;;;;;13.87;71.73;95034.28;5063074;28;20201;-75
2023/01/22 07:33:37;;;;;;;27.63;17.90;;;;;;;14.43;69.84;95036.50;5071636;28;20284;-74
2023/01/22 07:36:03;;;;;;;25.83;16.70;;;;;;;14.78;68.18;95039.13;5068602;28;20179;-75
2023/01/22 07:38:29;;;;;;;24.97;16.20;;;;;;;15.18;66.84;95044.47;5051457;28;20778;-75
2023/01/22 07:41:05;;;;;;;32.30;17.33;;;;;;;15.25;65.23;95049.63;5051554;28;20206;-75
2023/01/22 07:43:31;;;;;;;24.70;15.97;;;;;;;15.90;65.39;95049.31;5057875;28;20235;-75
2023/01/22 07:45:59;;;;;;;20.73;13.50;;;;;;;17.62;60.34;95050.00;5069002;28;20181;-75
2023/01/22 07:48:25;;;;;;;17.33;11.70;;;;;;;19.48;55.31;95042.91;5051510;28;20693;-75
2023/01/22 07:50:50;;;;;;;12.60;8.80;;;;;;;19.91;51.29;95047.03;5051422;28;20179;-75
2023/01/22 07:53:16;;;;;;;12.48;9.02;;;;;;;19.04;52.36;95040.53;5061954;28;20629;-76
2023/01/22 07:55:42;;;;;;;14.38;10.30;;;;;;;18.82;54.11;95039.88;5059895;28;20206;-76
2023/01/22 07:58:07;;;;;;;17.17;10.88;;;;;;;17.94;54.52;95036.75;5065997;28;20557;-76
2023/01/22 08:00:34;;;;;;;14.80;10.25;;;;;;;16.83;57.31;95027.44;5050014;28;20178;-76
2023/01/22 08:03:02;;;;;;;20.70;11.45;;;;;;;15.78;60.50;95033.44;5049914;28;20273;-75
2023/01/22 08:05:27;;;;;;;31.50;16.98;;;;;;;14.85;63.86;95028.41;5065833;28;20167;-76
2023/01/22 08:07:55;;;;;;;16.15;10.93;;;;;;;14.09;67.25;95039.88;5060751;28;20210;-76
2023/01/22 08:10:21;;;;;;;23.47;13.20;;;;;;;13.42;69.29;95033.91;5070605;28;20181;-75
2023/01/22 08:12:46;;;;;;;18.67;10.60;;;;;;;12.88;71.07;95045.31;5071078;28;20253;-75
2023/01/22 08:15:12;;;;;;;22.83;12.97;;;;;;;12.33;73.84;95046.06;5070969;28;20179;-75
2023/01/22 08:17:38;;;;;;;22.60;11.67;;;;;;;11.97;76.04;95049.38;5067657;28;20175;-76
2023/01/22 08:20:05;;;;;;;24.40;11.53;;;;;;;11.77;77.37;95046.06;5045038;28;20679;-75
2023/01/22 08:22:31;;;;;;;21.13;12.40;;;;;;;11.56;78.35;95041.94;5040084;28;20266;-76
2023/01/22 08:24:56;;;;;;;20.27;11.37;;;;;;;11.45;79.14;95053.13;5043302;28;20917;-76
2023/01/22 08:27:22;;;;;;;17.27;11.73;;;;;;;11.36;79.68;95054.41;5046255;28;20179;-76
2023/01/22 08:29:50;;;;;;;18.80;12.10;;;;;;;11.47;80.42;95059.00;5053938;28;20219;-76
2023/01/22 08:32:17;;;;;;;18.00;12.27;;;;;;;11.75;80.79;95048.13;5047647;28;20266;-75
2023/01/22 08:34:42;;;;;;;21.27;12.53;;;;;;;12.08;79.00;95046.06;5049831;28;20180;-75
2023/01/22 08:37:08;;;;;;;18.93;11.50;;;;;;;12.14;76.71;95054.94;5048927;28;20225;-75
2023/01/22 08:39:33;;;;;;;22.00;11.87;;;;;;;11.91;76.65;95044.16;5036265;28;20545;-75
2023/01/22 08:41:58;;;;;;;22.17;13.03;;;;;;;11.78;77.68;95050.31;5048043;28;20274;-75
2023/01/22 08:44:24;;;;;;;24.80;14.70;;;;;;;11.63;78.50;95040.06;5036668;28;20186;-74
2023/01/22 08:46:51;;;;;;;27.13;14.83;;;;;;;11.54;79.52;95054.50;5037066;28;20179;-74
2023/01/22 08:49:21;;;;;;;30.70;16.27;;;;;;;11.54;79.65;95051.88;5042378;28;20250;-75
2023/01/22 08:51:46;;;;;;;24.43;14.73;;;;;;;11.42;79.49;95044.84;5043621;28;20179;-75
2023/01/22 08:54:13;;;;;;;27.37;15.60;;;;;;;11.34;80.10;95056.44;5039046;28;20180;-75
2023/01/22 08:56:38;;;;;;;27.27;15.33;;;;;;;11.33;81.03;95054.81;5032741;28;20197;-74
2023/01/22 08:59:05;;;;;;;27.97;14.33;;;;;;;11.40;81.21;95060.06;5038216;28;20646;-75
2023/01/22 09:01:31;;;;;;;21.33;12.67;;;;;;;11.34;79.87;95057.25;5043781;28;20644;-74
2023/01/22 09:03:57;;;;;;;23.20;13.80;;;;;;;11.14;80.37;95042.56;5042922;28;20187;-75
2023/01/22 09:06:23;;;;;;;22.10;12.90;;;;;;;11.12;80.37;95052.50;5048480;28;20183;-74
2023/01/22 09:08:49;;;;;;;21.87;11.93;;;;;;;10.96;80.71;95049.31;5057849;28;20203;-74
2023/01/22 09:11:15;;;;;;;20.60;12.83;;;;;;;10.91;82.20;95054.38;5044026;28;20287;-74
2023/01/22 09:13:40;;;;;;;23.77;13.30;;;;;;;10.86;82.44;95041.03;5037734;28;20645;-74
2023/01/22 09:16:09;;;;;;;22.13;12.43;;;;;;;10.91;81.99;95045.66;5046491;28;20944;-74
2023/01/22 09:18:35;;;;;;;26.00;13.67;;;;;;;11.01;82.23;95058.41;5046897;28;20273;-74
2023/01/22 09:21:01;;;;;;;20.43;12.07;;;;;;;11.34;82.53;95057.25;5040572;28;20965;-75
2023/01/22 09:23:26;;;;;;;21.60;12.97;;;;;;;11.65;80.76;95060.94;5053647;28;20218;-73
2023/01/22 09:25:51;;;;;;;24.13;12.83;;;;;;;11.94;79.74;95049.00;5045216;28;20672;-74
2023/01/22 09:28:17;;;;;;;20.97;12.50;;;;;;;12.38;79.18;95055.94;5047668;28;20203;-75
2023/01/22 09:30:43;;;;;;;24.40;12.67;;;;;;;12.84;78.23;95055.50;5038564;28;20179;-75
2023/01/22 09:33:08;;;;;;;17.83;11.83;;;;;;;12.95;75.95;95049.50;5039505;28;20180;-75
2023/01/22 09:35:34;;;;;;;21.10;11.60;;;;;;;12.97;73.95;95059.84;5038459;28;20175;-74
2023/01/22 09:38:00;;;;;;;21.43;12.60;;;;;;;13.03;74.71;95043.13;5035731;28;20239;-75
2023/01/22 09:40:30;;;;;;;20.00;12.00;;;;;;;13.23;75.41;95060.38;5033330;28;20176;-74
2023/01/22 09:43:06;;;;;;;19.10;11.80;;;;;;;13.48;73.94;95059.47;5043369;28;20653;-74
2023/01/22 09:45:35;;;;;;;18.90;11.33;;;;;;;13.54;71.82;95061.22;5045290;28;20282;-75
2023/01/22 09:48:07;;;;;;;17.73;10.37;;;;;;;13.42;72.87;95041.84;5050746;28;20198;-75
2023/01/22 09:50:34;;;;;;;17.77;10.67;;;;;;;13.74;72.38;95048.53;5046740;28;20179;-74
2023/01/22 09:53:03;;;;;;;15.60;9.60;;;;;;;14.02;71.14;95039.16;5040378;28;20176;-75
2023/01/22 09:55:35;;;;;;;15.73;9.70;;;;;;;14.21;69.41;95060.03;5053495;28;20187;-75
2023/01/22 09:58:06;;;;;;;15.77;10.50;;;;;;;14.45;70.26;95050.28;5041351;28;20182;-75
2023/01/22 10:00:40;;;;;;;16.10;9.80;;;;;;;14.35;67.88;95053.50;5039317;28;20292;-74
2023/01/22 10:03:13;;;;;;;20.57;9.33;;;;;;;14.33;68.32;95050.25;5039213;28;20222;-74
2023/01/22 10:05:47;;;;;;;14.73;9.40;;;;;;;14.08;67.99;95052.31;5041797;28;20184;-74
2023/01/22 10:08:18;;;;;;;17.83;10.50;;;;;;;13.69;69.49;95050.22;5039149;28;20294;-76
2023/01/22 10:10:44;;;;;;;17.00;9.60;;;;;;;13.41;70.55;95056.09;5039900;28;20188;-75
2023/01/22 10:13:15;;;;;;;18.63;10.27;;;;;;;12.91;72.63;95048.31;5038697;28;20184;-74
2023/01/22 10:15:41;;;;;;;24.03;10.67;;;;;;;12.81;72.57;95048.81;5044821;28;20702;-74
2023/01/22 10:18:18;;;;;;;15.17;10.27;;;;;;;12.66;72.73;95047.56;5043330;28;20182;-74
2023/01/22 10:20:44;;;;;;;22.83;12.37;;;;;;;12.48;73.95;95054.44;5041507;28;20208;-74
2023/01/22 10:23:18;;;;;;;17.87;11.47;;;;;;;12.23;74.73;95039.63;5036648;28;20194;-74
2023/01/22 10:25:44;;;;;;;19.67;11.30;;;;;;;12.20;75.17;95051.44;5043839;28;20346;-74
2023/01/22 10:28:11;;;;;;;19.47;11.13;;;;;;;12.28;76.49;95045.09;5051640;28;20242;-74
2023/01/22 10:30:57;;;;;;;21.13;11.67;;;;;;;12.55;76.14;95043.00;5042145;28;20186;-74
2023/01/22 10:33:24;;;;;;;18.27;11.77;;;;;;;12.71;75.36;95040.59;5043595;28;20171;-74
2023/01/22 10:35:52;;;;;;;21.20;12.10;;;;;;;12.64;74.58;95037.22;5048677;28;20183;-73
2023/01/22 10:38:31;;;;;;;19.07;10.53;;;;;;;12.48;74.99;95040.44;5050241;28;20620;-73
2023/01/22 10:41:02;;;;;;;20.80;9.07;;;;;;;12.30;74.79;95032.47;5045538;28;20191;-73
2023/01/22 10:43:32;;;;;;;15.97;9.23;;;;;;;12.29;75.79;95033.50;5045515;28;20183;-74
2023/01/22 10:46:04;;;;;;;18.63;8.70;;;;;;;12.33;76.30;95038.13;5046341;28;20183;-74
2023/01/22 10:48:30;;;;;;;14.73;7.83;;;;;;;12.52;75.63;95036.34;5059885;28;20221;-73
2023/01/22 10:51:01;;;;;;;17.30;7.50;;;;;;;12.65;74.35;95040.66;5050225;28;20911;-74
2023/01/22 10:53:36;;;;;;;14.03;7.70;;;;;;;12.73;73.83;95035.91;5049076;28;20210;-74
2023/01/22 10:56:06;;;;;;;9.63;6.07;;;;;;;12.76;72.83;95037.31;5046357;28;21936;-73
2023/01/22 10:58:38;;;;;;;10.30;6.53;;;;;;;12.92;73.06;95033.28;5049191;28;20188;-74
2023/01/22 11:01:25;;;;;;;9.07;5.43;;;;;;;12.98;72.95;95033.19;5042893;28;20918;-74
2023/01/22 11:03:51;;;;;;;7.13;4.60;;;;;;;12.87;71.87;95033.94;5047747;28;20190;-75
2023/01/22 11:06:27;;;;;;;10.00;5.30;;;;;;;12.69;74.38;95031.28;5046939;28;20229;-74
2023/01/22 11:09:05;;;;;;;5.33;3.40;;;;;;;12.79;72.00;95035.06;5035704;28;20217;-75
2023/01/22 11:11:37;;;;;;;6.17;3.87;;;;;;;12.80;71.96;95034.00;5042418;28;20179;-75
2023/01/22 11:14:14;;;;;;;8.37;4.13;;;;;;;12.82;71.52;95039.06;5052949;28;20188;-73
2023/01/22 11:16:41;;;;;;;5.10;3.33;;;;;;;12.65;72.47;95035.38;5041735;28;20193;-74
2023/01/22 11:19:15;;;;;;;5.53;3.00;;;;;;;12.71;70.95;95035.31;5047149;28;20179;-74
2023/01/22 11:21:50;;;;;;;6.80;3.47;;;;;;;12.54;71.82;95046.69;5045147;28;20649;-74
2023/01/22 11:24:24;;;;;;;6.13;3.70;;;;;;;12.24;73.36;95039.44;5043796;28;20679;-74
2023/01/22 11:27:32;;;;;;;7.33;2.97;;;;;;;12.23;73.56;95039.63;5034185;28;20186;-73
2023/01/22 11:30:23;;;;;;;5.17;2.47;;;;;;;12.11;72.68;95031.59;5036544;28;20188;-75
2023/01/22 11:32:58;;;;;;;4.20;2.47;;;;;;;12.16;73.08;95033.63;5052602;28;20180;-74
2023/01/22 11:35:28;;;;;;;3.63;2.57;;;;;;;12.24;72.26;95046.53;5048229;28;20185;-74